Terminal Aerodrome Forecast
Issued by NWS Atlanta, GA

Home | Current Version | Previous Version | Text Only | Print | Product List | Glossary On
Versions: 1 2 3 4 5 6 7 8 9 10 11 12 13 14 15 16 17
000
FTUS42 KFFC 221726
TAFMCN
TAF
KMCN 221726Z 2218/2318 20007KT P6SM VCSH SCT035
      TEMPO 2222/2302 VRB15G25KT 4SM -TSRA BKN030CB
     FM230200 17005KT 5SM SHRA VCTS BKN020CB
     FM230600 26004KT 4SM -SHRA OVC008
     FM231500 25004KT 4SM -SHRA OVC015=

USA.gov is the U.S. government's official web portal to all federal, state and local government web resources and services.